Lancaster, Massachusetts
Current Conditions -  °F | °C
As of 12:52 PM on Monday 24 Nov 2014 (Local Time) from KFIT Reporting Station
Light Rain Light Rain  
Wind Chill: 65°   Ceiling: 2600
Heat Index: 65°   Visibility: 7mi
Dew Point: 61°   Wind: 8mph
Humidity: 87%   Direction: 170°S
Pressure: 29.62"   Gusts: NA
Location:  42.46°N, 71.67°W
Report Text: KFIT 241752Z AUTO 17007KT 7SM -RA SCT019 BKN026 OVC047 18/16 A2962 RMK AO2 RAE05B22 SLP031 P0001 60028 T01830161 10183 20044 58016
Loading
Personal Weather Stations






























Interactive Weather Map New forecast layout! Learn more

10-Day Weather Forecast

Advertisements
Track Severe Weather on mobile